Time;durP1;ratioP1;P1;durP2;ratioP2;P2;SDS_P1;SDS_P2;PMS_P1;PMS_P2;Temp;Humidity;BMP_temperature;BMP_pressure;BME280_temperature;BME280_humidity;BME280_pressure;Samples;Min_cycle;Max_cycle;Signal;HPM_P1;HPM_P2
2022/09/28 00:00:46;;;;;;;0.50;0.40;;;21.00;57.70;;;;;;6292792;28;20028;-68
2022/09/28 00:03:50;;;;;;;0.25;0.22;;;21.00;57.70;;;;;;6291903;28;20370;-69
2022/09/28 00:06:51;;;;;;;0.40;0.30;;;21.00;57.70;;;;;;6292677;28;20073;-68
2022/09/28 00:09:51;;;;;;;0.20;0.20;;;21.00;57.60;;;;;;6291487;28;20029;-68
2022/09/28 00:12:54;;;;;;;0.30;0.30;;;21.00;57.70;;;;;;6291222;28;20024;-68
2022/09/28 00:16:03;;;;;;;0.20;0.20;;;21.00;57.70;;;;;;6290803;28;20044;-68
2022/09/28 00:19:05;;;;;;;0.68;0.43;;;21.00;57.70;;;;;;6292694;28;20073;-68
2022/09/28 00:22:06;;;;;;;0.25;0.20;;;21.00;57.70;;;;;;6292500;28;20112;-69
2022/09/28 00:25:07;;;;;;;0.50;0.40;;;21.00;57.70;;;;;;6290723;28;20032;-67
2022/09/28 00:28:08;;;;;;;0.30;0.30;;;21.00;57.70;;;;;;6291151;28;20078;-68
2022/09/28 00:31:09;;;;;;;0.40;0.30;;;21.00;57.70;;;;;;6292277;28;20059;-68
2022/09/28 00:34:10;;;;;;;0.30;0.30;;;21.00;57.80;;;;;;6292249;28;20491;-68
2022/09/28 00:37:12;;;;;;;0.43;0.20;;;21.00;57.80;;;;;;6292073;28;20025;-68
2022/09/28 00:40:13;;;;;;;0.45;0.30;;;20.90;57.70;;;;;;6292166;28;20024;-67
2022/09/28 00:43:18;;;;;;;0.50;0.30;;;20.90;57.60;;;;;;6292098;28;20050;-68
2022/09/28 00:46:33;;;;;;;0.32;0.30;;;20.90;57.70;;;;;;6273092;28;20028;-68
2022/09/28 00:49:51;;;;;;;0.32;0.32;;;20.90;57.70;;;;;;6289830;28;20041;-69
2022/09/28 00:53:08;;;;;;;0.30;0.30;;;20.90;57.60;;;;;;6291605;28;20485;-68
2022/09/28 00:56:12;;;;;;;0.30;0.30;;;20.90;57.60;;;;;;6292048;28;20132;-68
2022/09/28 00:59:14;;;;;;;0.30;0.30;;;20.90;57.70;;;;;;6291982;28;20035;-68
2022/09/28 01:02:15;;;;;;;0.93;0.30;;;20.90;57.70;;;;;;6291620;28;20536;-68
2022/09/28 01:05:17;;;;;;;0.32;0.30;;;20.90;57.70;;;;;;6291931;28;20028;-68
2022/09/28 01:08:20;;;;;;;0.30;0.30;;;20.90;57.70;;;;;;6290836;28;20029;-68
2022/09/28 01:11:21;;;;;;;0.20;0.20;;;20.90;57.70;;;;;;6291756;28;20025;-68
2022/09/28 01:14:24;;;;;;;0.25;0.20;;;20.90;57.60;;;;;;6290426;28;20025;-68
2022/09/28 01:17:35;;;;;;;0.30;0.30;;;20.90;57.70;;;;;;6291421;28;20017;-68
2022/09/28 01:20:57;;;;;;;0.40;0.30;;;20.90;57.70;;;;;;6290479;28;20028;-68
2022/09/28 01:24:04;;;;;;;0.43;0.30;;;20.90;57.70;;;;;;6291288;28;20032;-69
2022/09/28 01:27:12;;;;;;;0.20;0.20;;;20.90;57.70;;;;;;6290049;28;20084;-68
2022/09/28 01:30:16;;;;;;;0.30;0.30;;;20.90;57.70;;;;;;6291619;28;20029;-68
2022/09/28 01:33:25;;;;;;;0.23;0.23;;;20.90;57.70;;;;;;6291962;28;20028;-68
2022/09/28 01:36:42;;;;;;;0.55;0.30;;;20.90;57.70;;;;;;6291735;28;20020;-68
2022/09/28 01:39:47;;;;;;;0.30;0.20;;;20.90;57.70;;;;;;6296063;28;20434;-69
2022/09/28 01:42:54;;;;;;;0.85;0.40;;;20.90;57.70;;;;;;6296097;28;20081;-68
2022/09/28 01:46:11;;;;;;;0.57;0.30;;;20.90;57.70;;;;;;6281055;28;20036;-68
2022/09/28 01:49:14;;;;;;;0.73;0.30;;;20.90;57.70;;;;;;6282939;28;20052;-68
2022/09/28 01:52:23;;;;;;;0.45;0.30;;;20.90;57.70;;;;;;6296096;28;20024;-68
2022/09/28 01:55:28;;;;;;;0.30;0.20;;;20.90;57.70;;;;;;6296069;28;20485;-68
2022/09/28 01:58:54;;;;;;;0.20;0.20;;;20.90;57.70;;;;;;6294269;28;20025;-68
2022/09/28 02:02:00;;;;;;;0.30;0.30;;;20.90;57.70;;;;;;6295428;28;20028;-68
2022/09/28 02:05:11;;;;;;;0.30;0.30;;;20.90;57.70;;;;;;6295739;28;20028;-68
2022/09/28 02:08:30;;;;;;;0.22;0.22;;;20.90;57.80;;;;;;6295277;28;20029;-68
2022/09/28 02:11:36;;;;;;;0.28;0.20;;;20.90;57.70;;;;;;6294412;28;20028;-68
2022/09/28 02:14:39;;;;;;;0.17;0.13;;;20.90;57.80;;;;;;6295395;28;20023;-68
2022/09/28 02:17:40;;;;;;;0.80;0.20;;;20.90;57.70;;;;;;6294392;28;20072;-68
2022/09/28 02:20:46;;;;;;;0.30;0.30;;;20.90;57.70;;;;;;6295260;28;20040;-68
2022/09/28 02:23:59;;;;;;;0.25;0.25;;;20.90;57.70;;;;;;6294963;28;20028;-68
2022/09/28 02:27:20;;;;;;;0.30;0.30;;;20.90;57.80;;;;;;6294216;28;20112;-69
2022/09/28 02:30:21;;;;;;;0.30;0.30;;;20.90;57.70;;;;;;6294048;28;20077;-68
2022/09/28 02:33:35;;;;;;;0.38;0.20;;;20.90;57.70;;;;;;6293625;28;20025;-68
2022/09/28 02:36:36;;;;;;;0.25;0.22;;;20.90;57.70;;;;;;6270357;28;20495;-68
2022/09/28 02:39:36;;;;;;;0.20;0.20;;;20.90;58.50;;;;;;6278598;28;20028;-68
2022/09/28 02:42:58;;;;;;;0.20;0.20;;;20.90;57.80;;;;;;6294982;28;20029;-68
2022/09/28 02:46:23;;;;;;;0.20;0.20;;;20.90;57.80;;;;;;6278771;28;20589;-68
2022/09/28 02:49:56;;;;;;;0.60;0.20;;;20.90;57.80;;;;;;6274349;28;20048;-68
2022/09/28 02:53:09;;;;;;;0.20;0.20;;;20.90;57.70;;;;;;6294447;28;20037;-68
2022/09/28 02:56:50;;;;;;;0.20;0.20;;;20.90;57.80;;;;;;6294294;28;20027;-68
2022/09/28 03:00:16;;;;;;;0.70;0.30;;;20.90;57.70;;;;;;6294180;28;20087;-68
2022/09/28 03:03:47;;;;;;;0.50;0.30;;;20.90;57.80;;;;;;6294277;28;20104;-68
2022/09/28 03:06:56;;;;;;;0.20;0.20;;;20.90;57.80;;;;;;6294536;28;20063;-68
2022/09/28 03:10:06;;;;;;;0.20;0.20;;;20.90;57.70;;;;;;6294244;28;20070;-68
2022/09/28 03:13:08;;;;;;;0.65;0.20;;;20.90;57.80;;;;;;6292198;28;20031;-68
2022/09/28 03:16:14;;;;;;;0.28;0.28;;;20.90;57.80;;;;;;6293882;28;20473;-68
2022/09/28 03:19:22;;;;;;;0.20;0.20;;;20.90;57.80;;;;;;6294321;28;20384;-68
2022/09/28 03:22:23;;;;;;;0.20;0.20;;;20.90;57.80;;;;;;6293583;28;20082;-68
2022/09/28 03:25:23;;;;;;;0.13;0.13;;;20.90;57.80;;;;;;6293947;28;20032;-68
2022/09/28 03:28:24;;;;;;;0.20;0.20;;;20.90;57.80;;;;;;6292089;28;20090;-68
2022/09/28 03:31:25;;;;;;;0.20;0.20;;;20.80;57.70;;;;;;6293638;28;20028;-68
2022/09/28 03:34:25;;;;;;;0.20;0.20;;;20.80;57.70;;;;;;6292429;28;20035;-68
2022/09/28 03:37:27;;;;;;;0.30;0.30;;;20.90;57.80;;;;;;6292836;28;20547;-68
2022/09/28 03:40:28;;;;;;;0.22;0.20;;;20.90;57.80;;;;;;6292129;28;20025;-68
2022/09/28 03:43:29;;;;;;;0.20;0.20;;;20.90;57.80;;;;;;6291878;28;20059;-68
2022/09/28 03:46:29;;;;;;;0.20;0.20;;;20.90;57.80;;;;;;6286488;28;20661;-68
2022/09/28 03:49:30;;;;;;;0.20;0.20;;;20.90;57.80;;;;;;6292043;28;20362;-69
2022/09/28 03:52:31;;;;;;;0.13;0.13;;;20.90;57.80;;;;;;6292799;28;20117;-68
2022/09/28 03:55:32;;;;;;;0.20;0.20;;;20.80;57.70;;;;;;6293291;28;20025;-68
2022/09/28 03:58:33;;;;;;;0.32;0.28;;;20.80;57.70;;;;;;6293024;28;20027;-68
2022/09/28 04:01:33;;;;;;;0.20;0.20;;;20.80;57.70;;;;;;6292902;28;20162;-68
2022/09/28 04:04:35;;;;;;;0.20;0.20;;;20.80;57.70;;;;;;6292470;28;20125;-68
2022/09/28 04:07:35;;;;;;;0.20;0.20;;;20.80;57.60;;;;;;6291972;28;20033;-69
2022/09/28 04:10:36;;;;;;;0.45;0.30;;;20.80;57.70;;;;;;6292721;28;20115;-68
2022/09/28 04:13:37;;;;;;;0.20;0.20;;;20.80;57.70;;;;;;6291227;28;20362;-68
2022/09/28 04:16:37;;;;;;;0.22;0.20;;;20.80;57.70;;;;;;6292356;28;20029;-68
2022/09/28 04:19:38;;;;;;;0.47;0.32;;;20.80;57.70;;;;;;6291539;28;20039;-69
2022/09/28 04:22:38;;;;;;;0.38;0.28;;;20.80;57.70;;;;;;6292258;28;20024;-68
2022/09/28 04:25:39;;;;;;;0.45;0.25;;;20.80;57.70;;;;;;6292294;28;20121;-68
2022/09/28 04:29:22;;;;;;;0.32;0.20;;;20.80;57.60;;;;;;6290766;28;20036;-69
2022/09/28 04:32:04;;;;;;;2.28;0.30;;;20.80;57.70;;;;;;6294185;28;20036;-68
2022/09/28 04:35:05;;;;;;;0.80;0.32;;;20.80;57.70;;;;;;6292292;28;20531;-68
2022/09/28 04:38:06;;;;;;;0.40;0.20;;;20.80;57.70;;;;;;6291935;28;20020;-68
2022/09/28 04:41:07;;;;;;;0.20;0.20;;;20.80;57.70;;;;;;6292342;28;20082;-68
2022/09/28 04:44:08;;;;;;;0.30;0.30;;;20.80;57.70;;;;;;6289644;28;20111;-68
2022/09/28 04:47:09;;;;;;;0.20;0.20;;;20.80;57.70;;;;;;6279440;28;20045;-68
2022/09/28 04:50:09;;;;;;;0.60;0.30;;;20.80;57.60;;;;;;6290635;28;20381;-68
2022/09/28 04:53:10;;;;;;;0.22;0.22;;;20.80;57.70;;;;;;6291832;28;20107;-68
2022/09/28 04:56:13;;;;;;;0.10;0.10;;;20.80;57.70;;;;;;6291999;28;20030;-68
2022/09/28 05:03:11;;;;;;;0.30;0.20;;;20.80;57.70;;;;;;6293231;28;20033;-68
2022/09/28 05:06:14;;;;;;;0.10;0.10;;;20.80;57.70;;;;;;6293523;28;20118;-68
2022/09/28 05:09:14;;;;;;;0.20;0.20;;;20.80;57.70;;;;;;6292940;28;20515;-67
2022/09/28 05:12:15;;;;;;;0.20;0.20;;;20.80;57.80;;;;;;6293076;28;20025;-67
2022/09/28 05:15:16;;;;;;;0.30;0.30;;;20.80;57.70;;;;;;6293221;28;20024;-68
2022/09/28 05:18:16;;;;;;;0.82;0.25;;;20.80;57.70;;;;;;6293291;28;20048;-67
2022/09/28 05:21:18;;;;;;;0.22;0.22;;;20.80;57.70;;;;;;6293101;28;20068;-67
2022/09/28 05:24:19;;;;;;;0.45;0.20;;;20.80;57.70;;;;;;6293381;28;20025;-68
2022/09/28 05:27:20;;;;;;;0.43;0.30;;;20.80;57.70;;;;;;6291557;28;20029;-68
2022/09/28 05:30:21;;;;;;;0.32;0.28;;;20.80;57.70;;;;;;6293196;28;20059;-68
2022/09/28 05:33:22;;;;;;;0.32;0.28;;;20.80;57.80;;;;;;6293096;28;20695;-67
2022/09/28 05:36:26;;;;;;;0.20;0.20;;;20.80;57.70;;;;;;6292841;28;20021;-68
2022/09/28 05:39:27;;;;;;;0.38;0.30;;;20.80;57.80;;;;;;6292742;28;20031;-68
2022/09/28 05:42:29;;;;;;;0.43;0.38;;;20.80;57.70;;;;;;6293079;28;20031;-68
2022/09/28 05:45:29;;;;;;;0.10;0.10;;;20.80;57.70;;;;;;6292722;28;20078;-68
2022/09/28 05:48:30;;;;;;;0.28;0.28;;;20.80;57.70;;;;;;6292606;28;20131;-68
2022/09/28 05:51:31;;;;;;;0.20;0.20;;;20.80;57.70;;;;;;6292545;28;20257;-68
2022/09/28 05:54:32;;;;;;;1.10;0.40;;;20.80;57.70;;;;;;6292935;28;20066;-68
2022/09/28 05:57:32;;;;;;;0.20;0.20;;;20.80;57.70;;;;;;6292419;28;20105;-68
2022/09/28 06:00:34;;;;;;;0.20;0.20;;;20.80;57.70;;;;;;6294905;28;20493;-67
2022/09/28 06:03:35;;;;;;;0.28;0.25;;;20.80;57.60;;;;;;6294102;28;20737;-67
2022/09/28 06:06:37;;;;;;;0.20;0.20;;;20.80;57.70;;;;;;6294897;28;20024;-67
2022/09/28 06:09:37;;;;;;;0.22;0.22;;;20.80;57.60;;;;;;6294465;28;20024;-67
2022/09/28 06:12:38;;;;;;;0.20;0.20;;;20.80;57.70;;;;;;6294635;28;20461;-67
2022/09/28 06:15:41;;;;;;;0.20;0.20;;;20.80;57.70;;;;;;6294571;28;20020;-67
2022/09/28 06:18:42;;;;;;;0.25;0.20;;;20.80;57.70;;;;;;6294706;28;20099;-67
2022/09/28 06:21:43;;;;;;;0.90;0.30;;;20.80;57.60;;;;;;6294463;28;20029;-67
2022/09/28 06:24:43;;;;;;;0.40;0.22;;;20.80;57.70;;;;;;6295140;28;20021;-67
2022/09/28 06:27:56;;;;;;;0.30;0.30;;;20.80;57.70;;;;;;6299014;28;20020;-67
2022/09/28 06:30:59;;;;;;;0.20;0.20;;;20.80;57.80;;;;;;6298577;28;20094;-67
2022/09/28 06:34:00;;;;;;;0.20;0.20;;;20.80;57.70;;;;;;6297352;28;20020;-67
2022/09/28 06:37:03;;;;;;;0.60;0.30;;;20.80;57.70;;;;;;6298574;28;20545;-67
2022/09/28 06:40:04;;;;;;;0.30;0.30;;;20.80;57.70;;;;;;6298852;28;20024;-67
2022/09/28 06:43:09;;;;;;;0.63;0.32;;;20.80;57.70;;;;;;6298228;28;20025;-67
2022/09/28 06:46:10;;;;;;;0.20;0.20;;;20.80;57.70;;;;;;6298807;28;20525;-67
2022/09/28 06:49:11;;;;;;;0.20;0.20;;;20.80;57.70;;;;;;6297686;28;20059;-67
2022/09/28 06:52:12;;;;;;;0.85;0.52;;;20.80;57.80;;;;;;6298482;28;20020;-68
2022/09/28 06:55:12;;;;;;;0.22;0.20;;;20.80;57.70;;;;;;6296593;28;20564;-67
2022/09/28 06:58:16;;;;;;;0.60;0.40;;;20.80;57.80;;;;;;6298444;28;20028;-67
2022/09/28 07:01:16;;;;;;;0.47;0.35;;;20.80;57.80;;;;;;6297168;28;20059;-67
2022/09/28 07:04:17;;;;;;;0.28;0.20;;;20.80;57.70;;;;;;6297241;28;20024;-67
2022/09/28 07:07:18;;;;;;;0.40;0.40;;;20.80;57.80;;;;;;6297869;28;20096;-67
2022/09/28 07:10:19;;;;;;;0.32;0.28;;;20.80;57.80;;;;;;6298072;28;20499;-68
2022/09/28 07:13:19;;;;;;;0.63;0.32;;;20.80;57.70;;;;;;6297981;28;20021;-67
2022/09/28 07:16:20;;;;;;;0.20;0.20;;;20.80;57.70;;;;;;6296500;28;20020;-67
2022/09/28 07:19:20;;;;;;;0.80;0.32;;;20.80;57.80;;;;;;6296758;28;20017;-67
2022/09/28 07:22:21;;;;;;;0.20;0.20;;;20.80;57.70;;;;;;6297674;28;20504;-67
2022/09/28 07:25:22;;;;;;;0.30;0.30;;;20.80;57.70;;;;;;6297526;28;20107;-67
2022/09/28 07:28:24;;;;;;;0.50;0.30;;;20.80;57.70;;;;;;6297514;28;20074;-67
2022/09/28 07:31:25;;;;;;;0.30;0.25;;;20.80;57.70;;;;;;6297527;28;20517;-67
2022/09/28 07:34:25;;;;;;;0.65;0.38;;;20.80;57.70;;;;;;6297470;28;20025;-67
2022/09/28 07:37:26;;;;;;;1.20;0.40;;;20.80;57.70;;;;;;6297110;28;20039;-67
2022/09/28 07:43:47;;;;;;;0.30;0.30;;;20.80;57.70;;;;;;6297536;28;20103;-67
2022/09/28 07:46:47;;;;;;;0.38;0.30;;;20.80;57.70;;;;;;6296630;28;20032;-67
2022/09/28 07:49:50;;;;;;;0.20;0.20;;;20.80;57.70;;;;;;6296916;28;20020;-67
2022/09/28 07:52:51;;;;;;;0.30;0.30;;;20.80;57.70;;;;;;6296665;28;20420;-67
2022/09/28 07:56:07;;;;;;;0.45;0.40;;;20.80;57.70;;;;;;6296601;28;20496;-67
2022/09/28 07:59:08;;;;;;;0.30;0.20;;;20.80;57.70;;;;;;6297358;28;20538;-67
2022/09/28 08:02:10;;;;;;;0.75;0.40;;;20.80;57.70;;;;;;6296637;28;20024;-67
2022/09/28 08:05:11;;;;;;;0.20;0.20;;;20.80;57.70;;;;;;6295321;28;20052;-67
2022/09/28 08:08:12;;;;;;;0.40;0.30;;;20.80;57.70;;;;;;6295389;28;20039;-68
2022/09/28 08:11:15;;;;;;;0.30;0.30;;;20.80;57.70;;;;;;6296661;28;20016;-67
2022/09/28 08:14:16;;;;;;;0.68;0.40;;;20.80;57.80;;;;;;6295902;28;20526;-67
2022/09/28 08:17:16;;;;;;;1.23;0.43;;;20.80;57.70;;;;;;6296585;28;20029;-67
2022/09/28 08:23:37;;;;;;;0.60;0.40;;;20.80;57.80;;;;;;6296567;28;20036;-67
2022/09/28 08:26:37;;;;;;;0.20;0.20;;;20.80;57.70;;;;;;6296198;28;20028;-68
2022/09/28 08:29:38;;;;;;;0.35;0.28;;;20.80;57.70;;;;;;6296066;28;20055;-67
2022/09/28 08:32:46;;;;;;;0.35;0.30;;;20.80;57.70;;;;;;6295898;28;20027;-67
2022/09/28 08:35:47;;;;;;;0.73;0.30;;;20.80;57.70;;;;;;6295692;28;20071;-68
2022/09/28 08:38:48;;;;;;;0.40;0.30;;;20.80;57.70;;;;;;6296370;28;20021;-67
2022/09/28 08:42:07;;;;;;;0.50;0.40;;;20.80;57.70;;;;;;6294405;28;20025;-67
2022/09/28 08:45:14;;;;;;;0.20;0.20;;;20.80;57.70;;;;;;6295745;28;20028;-67
2022/09/28 08:48:47;;;;;;;1.30;0.40;;;20.80;57.70;;;;;;6295080;28;20045;-68
2022/09/28 08:51:59;;;;;;;0.52;0.40;;;20.80;57.60;;;;;;6295775;28;20017;-68
2022/09/28 08:55:10;;;;;;;0.85;0.30;;;20.80;57.60;;;;;;6295592;28;20509;-68
2022/09/28 08:58:15;;;;;;;0.45;0.30;;;20.80;57.60;;;;;;6295564;28;20044;-67
2022/09/28 09:01:18;;;;;;;0.25;0.20;;;20.80;57.60;;;;;;6295931;28;20473;-68
2022/09/28 09:04:19;;;;;;;0.30;0.20;;;20.80;57.60;;;;;;6295603;28;20868;-67
2022/09/28 09:07:47;;;;;;;0.20;0.20;;;20.80;57.60;;;;;;6295273;28;20031;-67
2022/09/28 09:11:03;;;;;;;0.30;0.30;;;20.70;57.50;;;;;;6295341;28;20025;-68
2022/09/28 09:14:17;;;;;;;0.20;0.20;;;20.80;57.60;;;;;;6295295;28;20546;-68
2022/09/28 09:17:38;;;;;;;0.30;0.30;;;20.70;58.20;;;;;;6295407;28;20028;-68
2022/09/28 09:21:03;;;;;;;0.45;0.38;;;20.80;57.70;;;;;;6295641;28;20048;-68
2022/09/28 09:24:41;;;;;;;0.60;0.30;;;20.80;57.60;;;;;;6274827;28;20028;-67
2022/09/28 09:28:06;;;;;;;0.65;0.40;;;20.80;57.60;;;;;;6295080;28;20437;-68
2022/09/28 09:31:56;;;;;;;0.22;0.20;;;20.80;57.60;;;;;;6293766;28;20162;-67
2022/09/28 09:35:23;;;;;;;0.20;0.20;;;20.80;57.60;;;;;;6294925;28;20029;-68
2022/09/28 09:38:38;;;;;;;0.30;0.30;;;20.80;57.60;;;;;;6294955;28;20029;-68
2022/09/28 09:42:07;;;;;;;0.30;0.30;;;20.80;57.60;;;;;;6295174;28;20044;-68
2022/09/28 09:45:29;;;;;;;0.38;0.30;;;20.80;57.60;;;;;;6294838;28;20338;-68
2022/09/28 09:48:37;;;;;;;0.30;0.30;;;20.80;57.70;;;;;;6294762;28;20040;-68
2022/09/28 09:52:05;;;;;;;0.20;0.20;;;20.80;57.60;;;;;;6293562;28;20033;-68
2022/09/28 09:55:31;;;;;;;0.10;0.10;;;20.80;57.60;;;;;;6294593;28;20068;-68
2022/09/28 09:58:47;;;;;;;1.05;0.50;;;20.80;57.60;;;;;;6295348;28;20016;-68
2022/09/28 10:01:48;;;;;;;0.38;0.30;;;20.80;57.60;;;;;;6299886;28;20056;-68
2022/09/28 10:04:52;;;;;;;0.35;0.25;;;20.80;57.60;;;;;;6299484;28;20432;-67
2022/09/28 10:08:08;;;;;;;0.30;0.30;;;20.80;57.70;;;;;;6299497;28;20397;-68
2022/09/28 10:11:17;;;;;;;3.00;0.35;;;20.80;57.70;;;;;;6299097;28;20054;-68
2022/09/28 10:14:20;;;;;;;0.30;0.30;;;20.80;57.60;;;;;;6299135;28;20016;-68
2022/09/28 10:17:26;;;;;;;0.30;0.30;;;20.80;57.60;;;;;;6299475;28;20046;-68
2022/09/28 10:20:30;;;;;;;0.47;0.20;;;20.80;57.60;;;;;;6299313;28;20389;-68
2022/09/28 10:23:35;;;;;;;0.35;0.30;;;20.80;57.60;;;;;;6298679;28;20037;-68
2022/09/28 10:26:43;;;;;;;0.35;0.30;;;20.80;57.70;;;;;;6297685;28;20036;-68
2022/09/28 10:29:56;;;;;;;0.28;0.28;;;20.80;57.60;;;;;;6298830;28;20035;-68
2022/09/28 10:33:00;;;;;;;0.30;0.30;;;20.80;57.50;;;;;;6299041;28;20024;-68
2022/09/28 10:36:03;;;;;;;0.30;0.30;;;20.80;57.50;;;;;;6298756;28;20032;-68
2022/09/28 10:39:05;;;;;;;0.68;0.40;;;20.80;57.50;;;;;;6298895;28;20026;-68
2022/09/28 10:42:08;;;;;;;0.50;0.40;;;20.80;57.50;;;;;;6298618;28;20055;-68
2022/09/28 10:45:12;;;;;;;0.45;0.35;;;20.80;57.50;;;;;;6298512;28;20048;-68
2022/09/28 10:48:21;;;;;;;0.85;0.40;;;20.80;57.60;;;;;;6298371;28;20044;-68
2022/09/28 10:51:39;;;;;;;0.32;0.30;;;20.80;57.60;;;;;;6298434;28;20572;-68
2022/09/28 10:54:52;;;;;;;0.68;0.40;;;20.80;57.50;;;;;;6298551;28;20047;-68
2022/09/28 10:57:52;;;;;;;0.55;0.40;;;20.80;57.50;;;;;;6298154;28;20049;-68
2022/09/28 11:01:01;;;;;;;0.45;0.30;;;20.80;57.60;;;;;;6296832;28;20040;-68
2022/09/28 11:04:06;;;;;;;0.60;0.32;;;20.80;57.60;;;;;;6298219;28;20020;-68
2022/09/28 11:07:24;;;;;;;0.68;0.40;;;20.80;57.60;;;;;;6297723;28;20025;-68
2022/09/28 11:10:28;;;;;;;0.63;0.40;;;20.80;57.60;;;;;;6297124;28;20910;-68
2022/09/28 11:13:29;;;;;;;1.08;0.45;;;20.80;57.50;;;;;;6297687;28;20410;-68
2022/09/28 11:16:33;;;;;;;0.65;0.25;;;20.80;57.70;;;;;;6297912;28;20540;-68
2022/09/28 11:19:34;;;;;;;0.40;0.40;;;20.80;57.50;;;;;;6297896;28;20023;-68
2022/09/28 11:22:43;;;;;;;0.30;0.30;;;20.80;57.50;;;;;;6297650;28;20492;-68
2022/09/28 11:26:00;;;;;;;0.70;0.40;;;20.80;57.50;;;;;;6297862;28;20078;-69
2022/09/28 11:29:02;;;;;;;0.40;0.40;;;20.80;57.60;;;;;;6297491;28;20081;-68
2022/09/28 11:32:05;;;;;;;0.40;0.40;;;20.80;57.70;;;;;;6297667;28;20020;-68
2022/09/28 11:35:14;;;;;;;0.90;0.50;;;20.80;57.60;;;;;;6295673;28;20070;-68
2022/09/28 11:38:30;;;;;;;0.95;0.45;;;20.70;57.50;;;;;;6296894;28;20102;-68
2022/09/28 11:42:08;;;;;;;0.43;0.43;;;20.80;58.30;;;;;;6297302;28;20031;-68
2022/09/28 11:45:18;;;;;;;0.20;0.20;;;20.80;57.70;;;;;;6296629;28;20032;-68
2022/09/28 11:48:34;;;;;;;0.47;0.38;;;20.80;57.70;;;;;;6296827;28;20540;-68
2022/09/28 11:51:40;;;;;;;0.60;0.38;;;20.80;57.60;;;;;;6296863;28;20020;-68
2022/09/28 11:54:49;;;;;;;0.88;0.30;;;20.70;57.50;;;;;;6296986;28;20032;-68
2022/09/28 11:58:10;;;;;;;0.50;0.40;;;20.80;57.60;;;;;;6296853;28;20055;-68
2022/09/28 12:01:20;;;;;;;0.50;0.40;;;20.80;57.50;;;;;;6296568;28;20394;-68
2022/09/28 12:04:30;;;;;;;0.75;0.40;;;20.70;57.50;;;;;;6296358;28;20108;-68
2022/09/28 12:07:51;;;;;;;0.57;0.30;;;20.80;57.60;;;;;;6296459;28;20100;-68
2022/09/28 12:11:01;;;;;;;0.70;0.43;;;20.70;57.50;;;;;;6296196;28;20050;-68
2022/09/28 12:14:05;;;;;;;0.40;0.38;;;20.70;57.50;;;;;;6295893;28;20008;-68
2022/09/28 12:17:29;;;;;;;0.50;0.30;;;20.70;57.60;;;;;;6296380;28;20017;-68
2022/09/28 12:20:34;;;;;;;0.40;0.30;;;20.70;57.50;;;;;;6295795;28;20043;-68
2022/09/28 12:23:36;;;;;;;;;;;20.80;57.60;;;;;;6296247;28;20024;-68
2022/09/28 12:26:49;;;;;;;0.55;0.30;;;20.80;57.50;;;;;;6295805;28;19950;-68
2022/09/28 12:29:55;;;;;;;0.30;0.30;;;20.80;57.50;;;;;;6294231;28;20507;-68
2022/09/28 12:33:08;;;;;;;0.43;0.30;;;20.70;58.20;;;;;;6294334;28;20028;-68
2022/09/28 12:36:29;;;;;;;0.55;0.30;;;20.80;57.50;;;;;;6295800;28;20020;-68
2022/09/28 12:39:57;;;;;;;0.57;0.30;;;20.80;57.50;;;;;;6294263;28;20074;-68
2022/09/28 12:43:29;;;;;;;0.20;0.20;;;20.80;57.50;;;;;;6294523;28;20484;-68
2022/09/28 12:46:53;;;;;;;0.40;0.30;;;20.70;57.40;;;;;;6295186;28;20485;-68
2022/09/28 12:50:17;;;;;;;0.57;0.30;;;20.80;57.60;;;;;;6293965;28;20028;-68
2022/09/28 12:53:36;;;;;;;0.20;0.20;;;20.70;57.40;;;;;;6294185;28;20050;-68
2022/09/28 12:57:05;;;;;;;0.60;0.30;;;20.80;57.50;;;;;;6295318;28;20409;-68
2022/09/28 13:00:11;;;;;;;0.47;0.30;;;20.80;57.60;;;;;;6295191;28;20021;-68
2022/09/28 13:03:30;;;;;;;0.30;0.20;;;20.80;57.50;;;;;;6295238;28;20028;-68
2022/09/28 13:06:44;;;;;;;0.20;0.20;;;20.80;57.50;;;;;;6295537;28;20441;-68
2022/09/28 13:10:00;;;;;;;0.22;0.22;;;20.80;57.50;;;;;;6294223;28;20035;-68
2022/09/28 13:13:18;;;;;;;0.35;0.20;;;20.80;57.60;;;;;;6294821;28;20781;-68
2022/09/28 13:16:44;;;;;;;0.35;0.30;;;20.80;57.50;;;;;;6295116;28;20029;-68
2022/09/28 13:19:49;;;;;;;0.20;0.20;;;20.70;57.40;;;;;;6295210;28;20035;-68
2022/09/28 13:23:02;;;;;;;0.38;0.20;;;20.80;57.60;;;;;;6294705;28;20021;-68
2022/09/28 13:26:09;;;;;;;0.35;0.30;;;20.70;57.60;;;;;;6295127;28;20029;-68
2022/09/28 13:29:15;;;;;;;0.30;0.20;;;20.70;57.40;;;;;;6294971;28;20584;-68
2022/09/28 13:32:17;;;;;;;0.63;0.35;;;20.70;57.60;;;;;;6294773;28;20090;-68
2022/09/28 13:35:18;;;;;;;0.35;0.20;;;20.70;57.40;;;;;;6297561;28;20287;-68
2022/09/28 13:38:22;;;;;;;0.55;0.30;;;20.70;57.40;;;;;;6299911;28;20062;-68
2022/09/28 13:41:35;;;;;;;0.30;0.30;;;20.70;57.60;;;;;;6299970;28;20146;-67
2022/09/28 13:44:58;;;;;;;1.02;0.30;;;20.70;57.60;;;;;;6299715;28;20056;-68
2022/09/28 13:48:17;;;;;;;0.63;0.40;;;20.70;57.50;;;;;;6275101;28;20040;-68
2022/09/28 13:51:36;;;;;;;0.52;0.40;;;20.70;57.50;;;;;;6287969;28;20520;-68
2022/09/28 13:55:08;;;;;;;0.30;0.30;;;20.70;57.60;;;;;;6299616;28;20077;-68
2022/09/28 13:58:22;;;;;;;0.20;0.20;;;20.70;57.60;;;;;;6299330;28;20028;-68
2022/09/28 14:01:31;;;;;;;0.50;0.30;;;20.70;57.60;;;;;;6299371;28;20496;-68
2022/09/28 14:04:56;;;;;;;0.25;0.20;;;20.70;57.60;;;;;;6299525;28;20027;-68
2022/09/28 14:08:28;;;;;;;0.20;0.20;;;20.70;57.50;;;;;;6299505;28;20021;-69
2022/09/28 14:11:35;;;;;;;0.30;0.30;;;20.70;57.50;;;;;;6299067;28;20037;-68
2022/09/28 14:14:48;;;;;;;0.20;0.20;;;20.70;57.60;;;;;;6298902;28;20031;-68
2022/09/28 14:18:30;;;;;;;0.20;0.20;;;20.70;57.50;;;;;;6299005;28;20029;-68
2022/09/28 14:21:30;;;;;;;0.47;0.30;;;20.70;57.60;;;;;;6295680;28;20478;-68
2022/09/28 14:24:52;;;;;;;0.20;0.20;;;20.70;57.60;;;;;;6298930;28;20024;-68
2022/09/28 14:27:54;;;;;;;0.20;0.20;;;20.70;57.60;;;;;;6298776;28;20039;-68
2022/09/28 14:30:57;;;;;;;0.25;0.25;;;20.70;57.60;;;;;;6298792;28;20067;-68
2022/09/28 14:34:01;;;;;;;0.50;0.30;;;20.70;57.60;;;;;;6298672;28;20043;-68
2022/09/28 14:41:11;;;;;;;0.45;0.25;;;20.70;57.60;;;;;;6298517;28;20029;-68
2022/09/28 14:44:15;;;;;;;0.20;0.20;;;20.70;57.60;;;;;;6298186;28;20032;-68
2022/09/28 14:47:32;;;;;;;0.20;0.20;;;20.70;57.60;;;;;;6297102;28;20567;-68
2022/09/28 14:50:33;;;;;;;0.20;0.20;;;20.70;57.60;;;;;;6298474;28;20675;-68
2022/09/28 14:53:37;;;;;;;0.32;0.30;;;20.70;57.40;;;;;;6297116;28;20020;-68
2022/09/28 14:56:48;;;;;;;0.40;0.20;;;20.70;57.60;;;;;;6298229;28;20025;-68
2022/09/28 14:59:49;;;;;;;0.35;0.30;;;20.70;57.60;;;;;;6298031;28;20040;-68
2022/09/28 15:02:52;;;;;;;0.20;0.20;;;20.70;57.60;;;;;;6297806;28;20024;-67
2022/09/28 15:05:54;;;;;;;0.35;0.30;;;20.70;57.70;;;;;;6297749;28;20025;-68
2022/09/28 15:08:54;;;;;;;0.32;0.30;;;20.70;57.60;;;;;;6298048;28;20024;-68
2022/09/28 15:12:06;;;;;;;0.10;0.10;;;20.70;57.70;;;;;;6297584;28;20024;-68
2022/09/28 15:15:30;;;;;;;0.20;0.20;;;20.70;57.60;;;;;;6297790;28;20025;-68
2022/09/28 15:18:42;;;;;;;0.20;0.20;;;20.70;57.70;;;;;;6296839;28;20017;-68
2022/09/28 15:21:48;;;;;;;0.28;0.28;;;20.70;57.70;;;;;;6297753;28;20383;-68
2022/09/28 15:24:58;;;;;;;0.20;0.15;;;20.70;57.70;;;;;;6297358;28;20054;-68
2022/09/28 15:28:12;;;;;;;0.20;0.20;;;20.70;57.70;;;;;;6297490;28;20048;-67
2022/09/28 15:31:22;;;;;;;0.30;0.20;;;20.70;57.70;;;;;;6297015;28;20068;-68
2022/09/28 15:34:55;;;;;;;0.20;0.20;;;20.70;57.70;;;;;;6297294;28;20035;-68
2022/09/28 15:37:56;;;;;;;0.30;0.17;;;20.70;57.70;;;;;;6297239;28;20074;-68
2022/09/28 15:40:57;;;;;;;0.30;0.30;;;20.70;57.70;;;;;;6296981;28;20029;-68
2022/09/28 15:44:09;;;;;;;0.10;0.10;;;20.70;57.60;;;;;;6296931;28;20031;-68
2022/09/28 15:47:23;;;;;;;0.30;0.30;;;20.70;57.60;;;;;;6276219;28;20514;-68
2022/09/28 15:50:30;;;;;;;0.10;0.10;;;20.70;57.60;;;;;;6296809;28;20036;-68
2022/09/28 15:53:32;;;;;;;0.45;0.25;;;20.70;57.60;;;;;;6296302;28;20028;-68
2022/09/28 15:57:01;;;;;;;0.30;0.30;;;20.70;57.70;;;;;;6296487;28;20028;-68
2022/09/28 16:00:21;;;;;;;0.20;0.20;;;20.70;57.60;;;;;;6270299;28;20025;-68
2022/09/28 16:03:28;;;;;;;0.20;0.20;;;20.70;57.60;;;;;;6271943;28;20033;-68
2022/09/28 16:06:29;;;;;;;0.90;0.30;;;20.70;57.60;;;;;;6271540;28;20021;-68
2022/09/28 16:09:30;;;;;;;0.52;0.20;;;20.70;57.60;;;;;;6270213;28;20410;-68
2022/09/28 16:12:43;;;;;;;0.35;0.35;;;20.70;57.60;;;;;;6271635;28;20014;-68
2022/09/28 16:15:44;;;;;;;0.28;0.20;;;20.70;57.50;;;;;;6271332;28;20095;-68
2022/09/28 16:18:50;;;;;;;0.35;0.25;;;20.70;57.80;;;;;;6282569;28;20153;-68
2022/09/28 16:21:52;;;;;;;0.52;0.20;;;20.70;57.60;;;;;;6294118;28;20024;-68
2022/09/28 16:24:55;;;;;;;0.15;0.10;;;20.70;57.50;;;;;;6294090;28;20460;-68
2022/09/28 16:27:56;;;;;;;0.25;0.20;;;20.70;57.60;;;;;;6292342;28;20024;-66
2022/09/28 16:31:10;;;;;;;0.28;0.20;;;20.70;57.50;;;;;;6293124;28;20439;-66
2022/09/28 16:34:25;;;;;;;0.20;0.20;;;20.70;57.50;;;;;;6292507;28;20020;-66